createdAt,value
2024-03-10T00:00:26.136Z,26.41
2024-03-10T00:02:53.915Z,27.51
2024-03-10T00:05:22.815Z,27.02
2024-03-10T00:07:49.721Z,26.73
2024-03-10T00:10:16.767Z,27.15
2024-03-10T00:12:50.987Z,27.03
2024-03-10T00:15:23.957Z,27.12
2024-03-10T00:17:51.841Z,27.25
2024-03-10T00:20:22.189Z,27.67
2024-03-10T00:22:52.222Z,27.16
2024-03-10T00:25:19.959Z,26.86
2024-03-10T00:27:46.847Z,27.95
2024-03-10T00:30:14.296Z,28.02
2024-03-10T00:32:41.157Z,26.88
2024-03-10T00:35:08.336Z,27.34
2024-03-10T00:37:35.919Z,27.46
2024-03-10T00:40:06.669Z,27.56
2024-03-10T00:42:33.576Z,26.71
2024-03-10T00:45:00.454Z,27.21
2024-03-10T00:47:27.378Z,27.01
2024-03-10T00:49:54.251Z,27.74
2024-03-10T00:52:20.985Z,26.72
2024-03-10T00:54:47.706Z,27.24
2024-03-10T00:57:15.572Z,27.67
2024-03-10T00:59:43.396Z,27.49
2024-03-10T01:02:10.380Z,26.68
2024-03-10T01:04:37.152Z,27.12
2024-03-10T01:07:04.764Z,26.48
2024-03-10T01:09:31.693Z,27.47
2024-03-10T01:11:58.631Z,27.09
2024-03-10T01:14:25.730Z,27.31
2024-03-10T01:16:52.533Z,27.38
2024-03-10T01:19:19.284Z,27.29
2024-03-10T01:21:47.121Z,27.23
2024-03-10T01:24:14.563Z,26.81
2024-03-10T01:26:41.301Z,27.70
2024-03-10T01:29:09.674Z,27.91
2024-03-10T01:31:36.628Z,27.74
2024-03-10T01:34:04.188Z,28.00
2024-03-10T01:36:31.329Z,28.17
2024-03-10T01:38:58.099Z,27.93
2024-03-10T01:41:26.728Z,28.05
2024-03-10T01:43:53.925Z,28.09
2024-03-10T01:46:23.205Z,28.64
2024-03-10T01:48:52.112Z,28.62
2024-03-10T01:51:22.066Z,28.56
2024-03-10T01:53:49.311Z,29.05
2024-03-10T01:56:18.358Z,29.55
2024-03-10T01:58:46.357Z,29.67
2024-03-10T02:01:17.429Z,29.66
2024-03-10T02:03:49.859Z,29.30
2024-03-10T02:06:17.296Z,29.97
2024-03-10T02:08:45.869Z,29.44
2024-03-10T02:11:13.229Z,29.88
2024-03-10T02:13:40.282Z,29.83
2024-03-10T02:16:08.283Z,31.23
2024-03-10T02:18:36.496Z,30.33
2024-03-10T02:21:10.546Z,30.90
2024-03-10T02:23:43.636Z,31.00
2024-03-10T02:26:10.921Z,30.29
2024-03-10T02:28:47.864Z,30.56
2024-03-10T02:31:33.225Z,31.28
2024-03-10T02:34:18.364Z,31.13
2024-03-10T02:37:03.813Z,31.18
2024-03-10T02:39:48.645Z,31.39
2024-03-10T02:42:34.050Z,31.47
2024-03-10T02:45:19.065Z,31.92
2024-03-10T02:47:45.914Z,31.58
2024-03-10T02:50:12.788Z,31.72
2024-03-10T02:52:39.732Z,32.51
2024-03-10T02:55:07.964Z,32.18
2024-03-10T02:57:34.665Z,32.29
2024-03-10T03:00:01.737Z,32.30
2024-03-10T03:02:30.833Z,31.64
2024-03-10T03:04:57.987Z,32.59
2024-03-10T03:07:24.780Z,33.09
2024-03-10T03:09:51.546Z,33.49
2024-03-10T03:12:18.322Z,33.04
2024-03-10T03:14:45.062Z,33.33
2024-03-10T03:17:11.833Z,33.39
2024-03-10T03:19:38.582Z,33.86
2024-03-10T03:22:06.031Z,33.71
2024-03-10T03:24:32.727Z,33.96
2024-03-10T03:26:59.705Z,34.01
2024-03-10T03:29:27.781Z,34.22
2024-03-10T03:31:55.394Z,33.64
2024-03-10T03:34:22.604Z,34.82
2024-03-10T03:36:49.413Z,34.13
2024-03-10T03:39:16.485Z,33.50
2024-03-10T03:41:43.164Z,35.29
2024-03-10T03:44:10.524Z,34.81
2024-03-10T03:46:37.425Z,34.67
2024-03-10T03:49:05.120Z,34.34
2024-03-10T03:51:31.842Z,35.32
2024-03-10T03:53:58.535Z,34.41
2024-03-10T03:56:25.343Z,34.63
2024-03-10T03:58:52.253Z,34.33
2024-03-10T04:01:19.290Z,34.10
2024-03-10T04:03:46.060Z,34.42
2024-03-10T04:06:15.664Z,34.41
2024-03-10T04:08:43.123Z,34.59
2024-03-10T04:11:10.027Z,33.50
2024-03-10T04:13:36.847Z,33.52
2024-03-10T04:16:03.865Z,33.60
2024-03-10T04:18:30.613Z,33.88
2024-03-10T04:20:57.364Z,34.47
2024-03-10T04:23:24.398Z,33.73
2024-03-10T04:25:52.873Z,33.87
2024-03-10T04:28:19.596Z,32.77
2024-03-10T04:30:46.705Z,33.55
2024-03-10T04:33:13.929Z,32.72
2024-03-10T04:35:40.758Z,33.45
2024-03-10T04:38:07.567Z,33.04
2024-03-10T04:40:34.361Z,33.26
2024-03-10T04:43:01.111Z,33.64
2024-03-10T04:45:28.663Z,32.64
2024-03-10T04:47:55.674Z,32.91
2024-03-10T04:50:22.513Z,32.12
2024-03-10T04:52:49.402Z,32.78
2024-03-10T04:55:16.292Z,32.91
2024-03-10T04:57:43.072Z,32.75
2024-03-10T05:00:11.431Z,32.58
2024-03-10T05:02:38.286Z,32.61
2024-03-10T05:05:05.540Z,32.79
2024-03-10T05:07:32.350Z,32.78
2024-03-10T05:09:59.626Z,32.74
2024-03-10T05:12:26.455Z,33.10
2024-03-10T05:14:53.186Z,32.65
2024-03-10T05:17:19.900Z,32.75
2024-03-10T05:19:46.696Z,32.57
2024-03-10T05:22:14.127Z,32.75
2024-03-10T05:24:44.340Z,32.90
2024-03-10T05:27:11.412Z,32.29
2024-03-10T05:29:38.378Z,32.48
2024-03-10T05:32:05.850Z,31.98
2024-03-10T05:34:41.032Z,33.23
2024-03-10T05:37:08.084Z,32.96
2024-03-10T05:39:34.828Z,32.65
2024-03-10T05:42:03.020Z,32.11
2024-03-10T05:44:29.739Z,32.31
2024-03-10T05:46:56.519Z,32.14
2024-03-10T05:49:23.311Z,31.57
2024-03-10T05:51:50.172Z,32.62
2024-03-10T05:54:16.873Z,32.90
2024-03-10T05:56:43.567Z,32.04
2024-03-10T05:59:10.936Z,31.72
2024-03-10T06:01:37.754Z,31.64
2024-03-10T06:04:06.042Z,31.50
2024-03-10T06:06:32.829Z,32.02
2024-03-10T06:08:59.624Z,31.78
2024-03-10T06:11:26.530Z,32.44
2024-03-10T06:13:53.371Z,32.06
2024-03-10T06:16:23.287Z,32.03
2024-03-10T06:18:57.080Z,32.84
2024-03-10T06:21:44.115Z,31.83
2024-03-10T06:24:30.070Z,31.03
2024-03-10T06:26:57.199Z,31.61
2024-03-10T06:29:25.318Z,31.64
2024-03-10T06:31:52.998Z,30.94
2024-03-10T06:34:23.234Z,31.10
2024-03-10T06:36:50.518Z,31.49
2024-03-10T06:39:20.875Z,31.72
2024-03-10T06:41:48.282Z,31.42
2024-03-10T06:44:20.376Z,30.77
2024-03-10T06:46:47.326Z,31.01
2024-03-10T06:49:15.570Z,30.90
2024-03-10T06:51:42.550Z,31.18
2024-03-10T06:54:09.602Z,31.22
2024-03-10T06:56:37.782Z,31.80
2024-03-10T06:59:04.612Z,30.46
2024-03-10T07:01:32.117Z,30.38
2024-03-10T07:03:59.759Z,30.21
2024-03-10T07:06:28.039Z,30.22
2024-03-10T07:08:55.521Z,29.83
2024-03-10T07:11:23.112Z,29.92
2024-03-10T07:13:50.368Z,30.76
2024-03-10T07:16:17.741Z,30.96
2024-03-10T07:18:44.472Z,30.53
2024-03-10T07:21:11.455Z,29.95
2024-03-10T07:23:38.223Z,29.86
2024-03-10T07:26:05.081Z,29.65
2024-03-10T07:28:32.736Z,30.38
2024-03-10T07:31:00.931Z,30.63
2024-03-10T07:33:27.779Z,29.30
2024-03-10T07:35:54.501Z,28.86
2024-03-10T07:38:21.844Z,28.87
2024-03-10T07:40:52.436Z,28.72
2024-03-10T07:43:21.584Z,29.12
2024-03-10T07:45:48.963Z,28.96
2024-03-10T07:48:17.336Z,28.88
2024-03-10T07:50:44.528Z,28.70
2024-03-10T07:53:11.571Z,28.12
2024-03-10T07:55:38.339Z,28.38
2024-03-10T07:58:08.214Z,28.27
2024-03-10T08:00:35.392Z,28.25
2024-03-10T08:03:02.186Z,28.22
2024-03-10T08:05:31.331Z,27.72
2024-03-10T08:07:58.396Z,27.40
2024-03-10T08:10:25.258Z,26.48
2024-03-10T08:12:53.478Z,26.15
2024-03-10T08:15:21.156Z,26.34
2024-03-10T08:17:48.224Z,26.70
2024-03-10T08:20:17.032Z,26.67
2024-03-10T08:22:46.411Z,27.02
2024-03-10T08:25:13.969Z,26.80
2024-03-10T08:27:41.688Z,26.68
2024-03-10T08:30:11.614Z,26.85
2024-03-10T08:32:39.579Z,27.13
2024-03-10T08:35:14.303Z,26.32
2024-03-10T08:37:46.417Z,25.88
2024-03-10T08:40:14.294Z,26.17
2024-03-10T08:42:45.119Z,25.78
2024-03-10T08:45:14.116Z,26.07
2024-03-10T08:47:43.951Z,25.41
2024-03-10T08:50:12.345Z,25.33
2024-03-10T08:52:40.534Z,25.23
2024-03-10T08:55:14.923Z,25.33
2024-03-10T08:57:43.068Z,25.15
2024-03-10T09:00:11.723Z,25.70
2024-03-10T09:02:40.065Z,25.10
2024-03-10T09:05:08.963Z,25.56
2024-03-10T09:07:37.087Z,25.32
2024-03-10T09:10:05.509Z,25.44
2024-03-10T09:12:34.256Z,25.40
2024-03-10T09:15:01.827Z,25.01
2024-03-10T09:17:28.641Z,24.88
2024-03-10T09:19:55.509Z,25.30
2024-03-10T09:22:22.201Z,25.03
2024-03-10T09:24:51.871Z,25.50
2024-03-10T09:27:20.584Z,25.04
2024-03-10T09:29:48.551Z,24.84
2024-03-10T09:32:17.227Z,25.35
2024-03-10T09:34:44.477Z,25.05
2024-03-10T09:37:11.302Z,24.58
2024-03-10T09:39:38.217Z,24.78
2024-03-10T09:42:05.192Z,25.26
2024-03-10T09:44:34.597Z,24.92
2024-03-10T09:47:02.661Z,25.42
2024-03-10T09:49:29.857Z,25.40
2024-03-10T09:51:58.370Z,25.26
2024-03-10T09:54:26.701Z,25.08
2024-03-10T09:56:54.463Z,25.46
2024-03-10T09:59:44.554Z,24.87
2024-03-10T10:02:32.198Z,25.34
2024-03-10T10:05:04.067Z,24.90
2024-03-10T10:07:30.961Z,24.90
2024-03-10T10:10:00.228Z,25.00
2024-03-10T10:12:31.567Z,25.16
2024-03-10T10:14:58.350Z,25.09
2024-03-10T10:17:26.536Z,25.34
2024-03-10T10:19:54.185Z,24.73
2024-03-10T10:22:25.108Z,24.90
2024-03-10T10:25:07.831Z,25.65
2024-03-10T10:27:50.325Z,24.84
2024-03-10T10:30:27.677Z,25.41
2024-03-10T10:33:05.970Z,25.72
2024-03-10T10:35:39.894Z,25.10
2024-03-10T10:38:14.597Z,25.13
2024-03-10T10:40:42.859Z,25.61
2024-03-10T10:43:13.478Z,25.30
2024-03-10T10:45:40.400Z,25.27
2024-03-10T10:48:11.446Z,25.25
2024-03-10T10:50:43.859Z,25.50
2024-03-10T10:53:13.127Z,25.14
2024-03-10T10:55:41.969Z,24.69
2024-03-10T10:58:13.184Z,25.24
2024-03-10T11:00:44.129Z,24.57
2024-03-10T11:03:18.318Z,24.84
2024-03-10T11:06:09.707Z,24.28
2024-03-10T11:08:38.905Z,25.37
2024-03-10T11:11:07.092Z,24.99
2024-03-10T11:13:35.353Z,25.33
2024-03-10T11:16:07.459Z,25.05
2024-03-10T11:18:36.963Z,24.95
2024-03-10T11:21:07.252Z,24.83
2024-03-10T11:23:40.539Z,24.88
2024-03-10T11:26:09.855Z,26.19
2024-03-10T11:28:56.384Z,25.06
2024-03-10T11:31:28.746Z,25.43
2024-03-10T11:34:00.332Z,24.64
2024-03-10T11:36:36.713Z,25.33
2024-03-10T11:39:08.693Z,24.88
2024-03-10T11:41:37.529Z,24.94
2024-03-10T11:44:04.926Z,24.61
2024-03-10T11:46:34.480Z,25.30
2024-03-10T11:49:03.055Z,24.56
2024-03-10T11:51:39.349Z,24.56
2024-03-10T11:54:12.615Z,24.97
2024-03-10T11:56:40.732Z,24.83
2024-03-10T11:59:08.503Z,24.59
2024-03-10T12:01:35.540Z,24.99
2024-03-10T12:04:08.248Z,24.73
2024-03-10T12:06:35.192Z,25.10
2024-03-10T12:09:02.249Z,25.44
2024-03-10T12:11:29.029Z,24.69
2024-03-10T12:13:55.896Z,25.93
2024-03-10T12:16:23.551Z,26.01
2024-03-10T12:18:51.156Z,24.92
2024-03-10T12:21:19.560Z,25.38
2024-03-10T12:23:47.548Z,25.60
2024-03-10T12:26:16.800Z,26.20
2024-03-10T12:28:48.485Z,26.15
2024-03-10T12:31:17.762Z,26.52
2024-03-10T12:33:51.144Z,26.30
2024-03-10T12:36:18.647Z,26.24
2024-03-10T12:38:45.389Z,26.64
2024-03-10T12:41:21.458Z,26.29
2024-03-10T12:43:48.305Z,26.11
2024-03-10T12:46:21.173Z,26.41
2024-03-10T12:48:49.135Z,26.47
2024-03-10T12:51:16.587Z,26.13
2024-03-10T12:53:44.225Z,26.34
2024-03-10T12:56:12.840Z,27.37
2024-03-10T12:58:41.109Z,27.78
2024-03-10T13:01:08.664Z,27.98
2024-03-10T13:03:36.015Z,27.53
2024-03-10T13:06:04.323Z,26.96
2024-03-10T13:08:31.773Z,27.16
2024-03-10T13:10:59.961Z,27.82
2024-03-10T13:13:27.849Z,27.81
2024-03-10T13:15:56.073Z,28.08
2024-03-10T13:18:23.807Z,28.29
2024-03-10T13:20:50.864Z,29.38
2024-03-10T13:23:17.776Z,28.79
2024-03-10T13:25:44.555Z,28.58
2024-03-10T13:28:11.504Z,27.99
2024-03-10T13:30:39.971Z,27.91
2024-03-10T13:33:07.185Z,28.54
2024-03-10T13:35:34.917Z,28.58
2024-03-10T13:38:05.295Z,28.87
2024-03-10T13:40:32.535Z,29.01
2024-03-10T13:42:59.919Z,30.71
2024-03-10T13:45:35.207Z,30.57
2024-03-10T13:48:07.399Z,30.36
2024-03-10T13:50:34.974Z,31.23
2024-03-10T13:53:01.847Z,31.07
2024-03-10T13:55:28.839Z,31.33
2024-03-10T13:57:56.003Z,32.87
2024-03-10T14:00:26.466Z,32.39
2024-03-10T14:02:54.551Z,32.63
2024-03-10T14:05:23.092Z,32.21
2024-03-10T14:07:49.915Z,33.13
2024-03-10T14:10:18.895Z,33.27
2024-03-10T14:12:46.077Z,33.28
2024-03-10T14:15:15.800Z,33.38
2024-03-10T14:17:45.425Z,33.52
2024-03-10T14:20:16.894Z,34.05
2024-03-10T14:22:51.792Z,33.91
2024-03-10T14:25:19.805Z,34.42
2024-03-10T14:27:52.610Z,34.04
2024-03-10T14:30:26.299Z,33.85
2024-03-10T14:32:55.744Z,33.35
2024-03-10T14:35:25.934Z,34.26
2024-03-10T14:37:54.567Z,34.82
2024-03-10T14:40:23.162Z,34.49
2024-03-10T14:42:53.129Z,34.42
2024-03-10T14:45:21.167Z,33.83
2024-03-10T14:47:50.692Z,34.33
2024-03-10T14:50:21.124Z,33.67
2024-03-10T14:52:50.194Z,32.71
2024-03-10T14:55:18.193Z,32.65
2024-03-10T14:57:48.877Z,32.50
2024-03-10T15:00:39.371Z,32.24
2024-03-10T15:03:14.751Z,31.16
2024-03-10T15:05:43.957Z,30.80
2024-03-10T15:08:14.908Z,31.05
2024-03-10T15:10:47.103Z,30.49
2024-03-10T15:13:17.361Z,29.81
2024-03-10T15:15:44.806Z,29.37
2024-03-10T15:18:11.675Z,29.42
2024-03-10T15:20:45.442Z,28.98
2024-03-10T15:23:14.299Z,29.81
2024-03-10T15:25:45.010Z,29.67
2024-03-10T15:28:12.710Z,30.14
2024-03-10T15:30:40.784Z,29.87
2024-03-10T15:33:07.762Z,29.73
2024-03-10T15:35:34.637Z,29.74
2024-03-10T15:38:02.016Z,29.86
2024-03-10T15:40:30.431Z,30.24
2024-03-10T15:42:57.811Z,29.75
2024-03-10T15:45:24.594Z,30.79
2024-03-10T15:47:58.168Z,30.18
2024-03-10T15:50:26.459Z,30.55
2024-03-10T15:52:54.354Z,30.65
2024-03-10T15:55:23.156Z,30.28
2024-03-10T15:57:51.838Z,30.31
2024-03-10T16:00:22.402Z,30.04
2024-03-10T16:03:03.003Z,29.86
2024-03-10T16:05:32.736Z,30.26
2024-03-10T16:07:59.921Z,30.16
2024-03-10T16:10:27.710Z,31.06
2024-03-10T16:12:54.829Z,30.64
2024-03-10T16:15:30.567Z,30.73
2024-03-10T16:17:57.892Z,31.03
2024-03-10T16:20:26.398Z,30.25
2024-03-10T16:22:56.471Z,30.76
2024-03-10T16:25:23.562Z,31.08
2024-03-10T16:27:51.035Z,31.12
2024-03-10T16:30:17.995Z,30.90
2024-03-10T16:32:45.912Z,31.43
2024-03-10T16:35:13.172Z,31.47
2024-03-10T16:37:43.488Z,31.70
2024-03-10T16:40:13.919Z,31.47
2024-03-10T16:42:43.789Z,31.85
2024-03-10T16:45:13.313Z,31.64
2024-03-10T16:47:46.120Z,32.13
2024-03-10T16:50:14.378Z,32.02
2024-03-10T16:52:41.207Z,31.96
2024-03-10T16:55:08.833Z,32.60
2024-03-10T16:57:39.809Z,33.40
2024-03-10T17:00:14.791Z,33.21
2024-03-10T17:02:45.954Z,33.10
2024-03-10T17:05:16.455Z,33.13
2024-03-10T17:07:43.819Z,32.73
2024-03-10T17:10:12.527Z,33.39
2024-03-10T17:12:40.818Z,33.86
2024-03-10T17:15:13.865Z,33.60
2024-03-10T17:17:43.902Z,33.89
2024-03-10T17:20:15.684Z,34.61
2024-03-10T17:22:42.720Z,33.35
2024-03-10T17:25:10.925Z,34.47
2024-03-10T17:27:38.520Z,34.60
2024-03-10T17:30:07.798Z,33.62
2024-03-10T17:32:36.207Z,34.70
2024-03-10T17:35:03.463Z,34.27
2024-03-10T17:37:30.876Z,35.00
2024-03-10T17:39:57.585Z,34.68
2024-03-10T17:42:25.199Z,34.58
2024-03-10T17:44:52.041Z,33.79
2024-03-10T17:47:20.031Z,34.63
2024-03-10T17:49:47.730Z,34.04
2024-03-10T17:52:14.498Z,33.97
2024-03-10T17:54:41.181Z,34.48
2024-03-10T17:57:11.339Z,34.51
2024-03-10T17:59:38.282Z,34.53
2024-03-10T18:02:06.553Z,35.12
2024-03-10T18:04:36.283Z,35.11
2024-03-10T18:07:04.101Z,35.19
2024-03-10T18:09:31.160Z,34.44
2024-03-10T18:11:58.044Z,34.26
2024-03-10T18:14:27.071Z,34.60
2024-03-10T18:16:54.088Z,35.36
2024-03-10T18:19:23.115Z,35.01
2024-03-10T18:21:51.064Z,35.62
2024-03-10T18:24:19.118Z,35.08
2024-03-10T18:26:48.782Z,34.30
2024-03-10T18:29:16.865Z,34.76
2024-03-10T18:31:44.228Z,35.53
2024-03-10T18:34:11.751Z,35.43
2024-03-10T18:36:39.916Z,34.75
2024-03-10T18:39:14.287Z,35.85
2024-03-10T18:41:41.724Z,34.84
2024-03-10T18:44:09.312Z,35.10
2024-03-10T18:46:37.278Z,35.12
2024-03-10T18:49:05.407Z,35.23
2024-03-10T18:51:32.429Z,35.46
2024-03-10T18:53:59.281Z,35.23
2024-03-10T18:56:28.398Z,34.89
2024-03-10T18:58:56.940Z,34.92
2024-03-10T19:01:23.992Z,36.35
2024-03-10T19:03:51.398Z,35.65
2024-03-10T19:06:19.787Z,35.31
2024-03-10T19:08:47.874Z,36.02
2024-03-10T19:11:14.953Z,36.36
2024-03-10T19:13:42.734Z,35.81
2024-03-10T19:16:11.861Z,36.20
2024-03-10T19:18:39.033Z,36.63
2024-03-10T19:21:07.341Z,36.64
2024-03-10T19:23:35.522Z,36.92
2024-03-10T19:26:05.061Z,37.57
2024-03-10T19:28:33.815Z,37.01
2024-03-10T19:31:05.505Z,37.14
2024-03-10T19:33:33.702Z,37.42
2024-03-10T19:36:02.594Z,37.30
2024-03-10T19:38:29.698Z,37.61
2024-03-10T19:40:57.271Z,38.01
2024-03-10T19:43:24.093Z,37.71
2024-03-10T19:45:50.891Z,37.08
2024-03-10T19:48:20.766Z,37.17
2024-03-10T19:50:50.076Z,37.50
2024-03-10T19:53:20.728Z,37.53
2024-03-10T19:55:51.224Z,37.21
2024-03-10T19:58:17.926Z,37.61
2024-03-10T20:00:44.636Z,37.78
2024-03-10T20:03:11.426Z,37.86
2024-03-10T20:05:39.204Z,36.63
2024-03-10T20:08:06.371Z,37.92
2024-03-10T20:10:33.165Z,37.08
2024-03-10T20:13:00.687Z,37.71
2024-03-10T20:15:28.312Z,37.53
2024-03-10T20:17:56.386Z,38.09
2024-03-10T20:20:24.644Z,38.01
2024-03-10T20:23:01.240Z,38.53
2024-03-10T20:25:28.814Z,38.20
2024-03-10T20:27:59.952Z,39.53
2024-03-10T20:30:31.884Z,38.52
2024-03-10T20:32:59.708Z,38.35
2024-03-10T20:35:27.746Z,38.77
2024-03-10T20:37:54.927Z,39.34
2024-03-10T20:40:21.846Z,39.26
2024-03-10T20:42:48.873Z,38.87
2024-03-10T20:45:16.294Z,38.88
2024-03-10T20:47:50.205Z,39.53
2024-03-10T20:50:23.541Z,38.65
2024-03-10T20:52:51.838Z,38.60
2024-03-10T20:55:18.800Z,38.72
2024-03-10T20:57:45.625Z,38.81
2024-03-10T21:00:12.729Z,39.20
2024-03-10T21:02:39.701Z,38.96
2024-03-10T21:05:08.013Z,38.70
2024-03-10T21:07:35.825Z,39.18
2024-03-10T21:10:06.446Z,39.04
2024-03-10T21:12:33.258Z,39.36
2024-03-10T21:15:00.469Z,38.51
2024-03-10T21:17:27.253Z,39.10
2024-03-10T21:19:53.984Z,38.95
2024-03-10T21:22:23.966Z,38.87
2024-03-10T21:24:50.908Z,38.32
2024-03-10T21:27:17.625Z,38.08
2024-03-10T21:29:45.180Z,38.61
2024-03-10T21:32:11.959Z,39.05
2024-03-10T21:34:38.890Z,38.65
2024-03-10T21:37:05.828Z,39.34
2024-03-10T21:39:32.716Z,39.34
2024-03-10T21:41:59.470Z,39.16
2024-03-10T21:44:26.300Z,38.63
2024-03-10T21:46:53.049Z,39.23
2024-03-10T21:49:19.872Z,39.07
2024-03-10T21:51:46.634Z,39.58
2024-03-10T21:54:13.533Z,39.13
2024-03-10T21:56:41.797Z,39.51
2024-03-10T21:59:08.869Z,40.24
2024-03-10T22:01:36.209Z,39.96
2024-03-10T22:04:05.815Z,40.63
2024-03-10T22:06:35.452Z,40.45
2024-03-10T22:09:02.310Z,40.26
2024-03-10T22:11:29.289Z,39.49
2024-03-10T22:13:56.555Z,40.52
2024-03-10T22:16:23.494Z,40.52
2024-03-10T22:18:50.190Z,39.75
2024-03-10T22:21:17.823Z,39.96
2024-03-10T22:23:44.681Z,40.67
2024-03-10T22:26:11.764Z,40.36
2024-03-10T22:28:39.133Z,39.97
2024-03-10T22:31:06.645Z,39.99
2024-03-10T22:33:33.424Z,39.95
2024-03-10T22:36:00.763Z,40.82
2024-03-10T22:38:27.525Z,41.00
2024-03-10T22:40:54.245Z,41.51
2024-03-10T22:43:24.526Z,41.04
2024-03-10T22:45:52.207Z,41.56
2024-03-10T22:48:19.494Z,40.23
2024-03-10T22:50:46.450Z,40.95
2024-03-10T22:53:13.400Z,40.73
2024-03-10T22:55:41.469Z,40.98
2024-03-10T22:58:08.656Z,40.78
2024-03-10T23:00:38.326Z,41.13
2024-03-10T23:03:07.981Z,41.33
2024-03-10T23:05:36.370Z,41.78
2024-03-10T23:08:06.633Z,42.01
2024-03-10T23:10:35.819Z,42.46
2024-03-10T23:13:05.187Z,41.71
2024-03-10T23:15:33.244Z,42.61
2024-03-10T23:18:00.361Z,41.96
2024-03-10T23:20:27.890Z,42.35
2024-03-10T23:23:01.363Z,42.20
2024-03-10T23:25:31.346Z,41.53
2024-03-10T23:27:59.661Z,40.81
2024-03-10T23:30:27.663Z,40.87
2024-03-10T23:32:57.251Z,41.95
2024-03-10T23:35:24.853Z,41.99
2024-03-10T23:37:51.798Z,41.33
2024-03-10T23:40:24.345Z,41.68
2024-03-10T23:42:52.899Z,41.00
2024-03-10T23:45:22.059Z,41.14
2024-03-10T23:47:52.698Z,41.66
2024-03-10T23:50:21.475Z,41.36
2024-03-10T23:52:51.850Z,41.48
2024-03-10T23:55:18.838Z,41.93
2024-03-10T23:57:45.597Z,41.04
